Time,TemperatureF,DewpointF,PressureIn,WindDirection,WindDirectionDegrees,WindSpeedMPH,WindSpeedGustMPH,Humidity,HourlyPrecipIn,Conditions,Clouds,dailyrainin,SoftwareType,DateUTC
2013-07-22 00:06:00,64.8,63.3,29.91,West,270,0.0,-999.0,95,-99.99,,,0.00,Acu-Link.com,2013-07-22 04:06:00,
2013-07-22 00:21:00,64.6,62.8,29.91,SW,225,0.0,-999.0,94,-99.99,,,0.00,Acu-Link.com,2013-07-22 04:21:00,
2013-07-22 00:37:00,64.0,62.2,29.91,West,270,0.0,-999.0,94,-99.99,,,0.00,Acu-Link.com,2013-07-22 04:37:00,
2013-07-22 00:52:00,64.2,63.0,29.90,West,270,0.0,-999.0,96,-99.99,,,0.00,Acu-Link.com,2013-07-22 04:52:00,
2013-07-22 01:07:00,64.0,62.5,29.90,SW,225,0.0,-999.0,95,-99.99,,,0.00,Acu-Link.com,2013-07-22 05:07:00,
2013-07-22 01:23:00,63.7,62.2,29.90,WSW,247,0.0,-999.0,95,-99.99,,,0.00,Acu-Link.com,2013-07-22 05:23:00,
2013-07-22 01:38:00,63.3,62.1,29.90,West,270,0.0,-999.0,96,-99.99,,,0.00,Acu-Link.com,2013-07-22 05:38:00,
2013-07-22 01:54:00,63.9,63.0,29.90,WNW,292,0.0,-999.0,97,-99.99,,,0.00,Acu-Link.com,2013-07-22 05:54:00,
2013-07-22 02:10:00,63.7,62.5,29.90,WSW,247,0.0,-999.0,96,-99.99,,,0.00,Acu-Link.com,2013-07-22 06:10:00,
2013-07-22 02:25:00,63.9,62.7,29.90,NNW,337,0.0,-999.0,96,-99.99,,,0.00,Acu-Link.com,2013-07-22 06:25:00,
2013-07-22 02:44:00,63.7,62.5,29.90,West,270,0.0,-999.0,96,-99.99,,,0.00,Acu-Link.com,2013-07-22 06:44:00,
2013-07-22 03:00:00,64.0,63.1,29.90,WNW,292,0.0,-999.0,97,-99.99,,,0.00,Acu-Link.com,2013-07-22 07:00:00,
2013-07-22 03:16:00,64.6,63.7,29.90,NW,315,0.0,-999.0,97,-99.99,,,0.00,Acu-Link.com,2013-07-22 07:16:00,
2013-07-22 03:32:00,65.1,64.2,29.89,WNW,292,0.0,-999.0,97,-99.99,,,0.00,Acu-Link.com,2013-07-22 07:32:00,
2013-07-22 03:48:00,65.3,64.1,29.90,NW,315,2.7,-999.0,96,-99.99,,,0.00,Acu-Link.com,2013-07-22 07:48:00,
2013-07-22 04:04:00,64.8,63.6,29.90,North,0,4.2,-999.0,96,-99.99,,,0.00,Acu-Link.com,2013-07-22 08:04:00,
2013-07-22 04:19:00,64.8,63.6,29.90,NNE,22,3.7,-999.0,96,-99.99,,,0.00,Acu-Link.com,2013-07-22 08:19:00,
2013-07-22 04:34:00,64.2,63.6,29.90,NW,315,4.2,-999.0,98,-99.99,,,0.00,Acu-Link.com,2013-07-22 08:34:00,
2013-07-22 04:52:00,64.4,63.8,29.90,NNW,337,3.2,-999.0,98,-99.99,,,0.00,Acu-Link.com,2013-07-22 08:52:00,
2013-07-22 05:07:00,64.2,63.6,29.90,WNW,292,3.7,-999.0,98,-99.99,,,0.00,Acu-Link.com,2013-07-22 09:07:00,
2013-07-22 05:23:00,64.6,64.3,29.91,NNW,337,2.7,-999.0,99,-99.99,,,0.00,Acu-Link.com,2013-07-22 09:23:00,
2013-07-22 05:38:00,65.1,64.2,29.91,NNE,22,3.7,-999.0,97,-99.99,,,0.00,Acu-Link.com,2013-07-22 09:38:00,
2013-07-22 05:56:00,65.3,63.8,29.92,NNW,337,3.2,-999.0,95,-99.99,,,0.00,Acu-Link.com,2013-07-22 09:56:00,
2013-07-22 06:20:00,65.5,63.7,29.91,NNE,22,4.2,-999.0,94,-99.99,,,0.00,Acu-Link.com,2013-07-22 10:20:00,
2013-07-22 06:35:00,65.3,64.1,29.91,NW,315,4.7,-999.0,96,-99.99,,,0.00,Acu-Link.com,2013-07-22 10:35:00,
2013-07-22 06:50:00,66.0,64.5,29.91,NNE,22,1.7,-999.0,95,-99.99,,,0.00,Acu-Link.com,2013-07-22 10:50:00,
2013-07-22 07:06:00,66.7,64.3,29.92,ESE,112,2.7,-999.0,92,-99.99,,,0.00,Acu-Link.com,2013-07-22 11:06:00,
2013-07-22 07:22:00,66.9,63.9,29.92,SE,135,1.7,-999.0,90,-99.99,,,0.00,Acu-Link.com,2013-07-22 11:22:00,
2013-07-22 07:38:00,66.6,64.5,29.93,NW,315,3.2,-999.0,93,-99.99,,,0.00,Acu-Link.com,2013-07-22 11:38:00,
2013-07-22 07:53:00,66.6,64.8,29.93,NNE,22,2.7,-999.0,94,-99.99,,,0.00,Acu-Link.com,2013-07-22 11:53:00,
2013-07-22 08:08:00,66.6,65.1,29.93,NE,45,2.2,-999.0,95,-99.99,,,0.00,Acu-Link.com,2013-07-22 12:08:00,
2013-07-22 08:23:00,66.7,64.9,29.92,NW,315,0.0,-999.0,94,-99.99,,,0.00,Acu-Link.com,2013-07-22 12:23:00,
2013-07-22 08:38:00,66.6,64.8,29.93,NNE,22,3.7,-999.0,94,-99.99,,,0.01,Acu-Link.com,2013-07-22 12:38:00,
2013-07-22 08:54:00,66.9,64.8,29.93,WNW,292,0.0,-999.0,93,-99.99,,,0.02,Acu-Link.com,2013-07-22 12:54:00,
2013-07-22 09:09:00,66.7,64.6,29.93,SSW,202,2.7,-999.0,93,-99.99,,,0.03,Acu-Link.com,2013-07-22 13:09:00,
2013-07-22 09:24:00,66.0,64.5,29.93,NW,315,2.7,-999.0,95,-99.99,,,0.09,Acu-Link.com,2013-07-22 13:24:00,
2013-07-22 09:39:00,66.2,65.0,29.93,NNE,22,4.2,-999.0,96,-99.99,,,0.25,Acu-Link.com,2013-07-22 13:39:00,
2013-07-22 09:55:00,66.2,65.9,29.93,NNE,22,3.7,-999.0,99,-99.99,,,0.34,Acu-Link.com,2013-07-22 13:55:00,
2013-07-22 10:10:00,66.6,65.7,29.93,ESE,112,1.7,-999.0,97,-99.99,,,0.36,Acu-Link.com,2013-07-22 14:10:00,
2013-07-22 10:25:00,66.9,66.0,29.93,SE,135,3.7,-999.0,97,-99.99,,,0.42,Acu-Link.com,2013-07-22 14:25:00,
2013-07-22 10:40:00,66.6,65.7,29.93,SSE,157,3.7,-999.0,97,-99.99,,,0.51,Acu-Link.com,2013-07-22 14:40:00,
2013-07-22 10:56:00,66.6,65.7,29.93,SSE,157,5.8,-999.0,97,-99.99,,,0.52,Acu-Link.com,2013-07-22 14:56:00,
2013-07-22 11:11:00,66.6,65.4,29.93,South,180,4.7,-999.0,96,-99.99,,,0.52,Acu-Link.com,2013-07-22 15:11:00,
2013-07-22 11:28:00,66.6,65.4,29.93,East,90,5.3,-999.0,96,-99.99,,,0.52,Acu-Link.com,2013-07-22 15:28:00,
2013-07-22 11:44:00,67.1,65.9,29.92,South,180,4.7,-999.0,96,-99.99,,,0.52,Acu-Link.com,2013-07-22 15:44:00,
2013-07-22 12:00:00,67.6,66.1,29.92,SSE,157,5.8,-999.0,95,-99.99,,,0.52,Acu-Link.com,2013-07-22 16:00:00,
2013-07-22 12:16:00,68.2,66.1,29.92,South,180,4.7,-999.0,93,-99.99,,,0.52,Acu-Link.com,2013-07-22 16:16:00,
2013-07-22 12:32:00,68.4,66.9,29.92,South,180,4.7,-999.0,95,-99.99,,,0.52,Acu-Link.com,2013-07-22 16:32:00,
2013-07-22 12:47:00,68.7,66.9,29.92,SSE,157,5.3,-999.0,94,-99.99,,,0.52,Acu-Link.com,2013-07-22 16:47:00,
2013-07-22 13:02:00,69.4,67.6,29.91,SSE,157,4.7,-999.0,94,-99.99,,,0.52,Acu-Link.com,2013-07-22 17:02:00,
2013-07-22 13:17:00,70.2,67.1,29.90,SSE,157,6.3,-999.0,90,-99.99,,,0.52,Acu-Link.com,2013-07-22 17:17:00,
2013-07-22 13:36:00,70.2,66.8,29.89,SSE,157,5.3,-999.0,89,-99.99,,,0.52,Acu-Link.com,2013-07-22 17:36:00,
2013-07-22 13:54:00,69.6,66.5,29.89,SSE,157,4.7,-999.0,90,-99.99,,,0.52,Acu-Link.com,2013-07-22 17:54:00,
2013-07-22 14:09:00,70.5,67.4,29.89,SSE,157,5.8,-999.0,90,-99.99,,,0.52,Acu-Link.com,2013-07-22 18:09:00,
2013-07-22 14:25:00,71.2,67.5,29.89,SE,135,6.8,-999.0,88,-99.99,,,0.52,Acu-Link.com,2013-07-22 18:25:00,
2013-07-22 14:42:00,72.0,68.2,29.89,SE,135,4.2,-999.0,88,-99.99,,,0.52,Acu-Link.com,2013-07-22 18:42:00,
2013-07-22 15:08:00,72.0,67.9,29.88,East,90,6.3,-999.0,87,-99.99,,,0.52,Acu-Link.com,2013-07-22 19:08:00,
2013-07-22 15:37:00,70.7,67.9,29.87,East,90,3.7,-999.0,91,-99.99,,,0.52,Acu-Link.com,2013-07-22 19:37:00,
2013-07-22 16:10:00,72.0,68.6,29.86,South,180,4.7,-999.0,89,-99.99,,,0.52,Acu-Link.com,2013-07-22 20:10:00,
2013-07-22 16:25:00,72.5,68.1,29.85,SSE,157,3.7,-999.0,86,-99.99,,,0.52,Acu-Link.com,2013-07-22 20:25:00,
2013-07-22 16:40:00,73.2,67.4,29.85,ESE,112,4.2,-999.0,82,-99.99,,,0.52,Acu-Link.com,2013-07-22 20:40:00,
2013-07-22 16:55:00,73.4,67.6,29.84,ESE,112,5.3,-999.0,82,-99.99,,,0.52,Acu-Link.com,2013-07-22 20:55:00,
2013-07-22 17:21:00,72.9,68.1,29.84,South,180,3.7,-999.0,85,-99.99,,,0.52,Acu-Link.com,2013-07-22 21:21:00,
2013-07-22 17:40:00,73.2,68.1,29.83,South,180,4.2,-999.0,84,-99.99,,,0.52,Acu-Link.com,2013-07-22 21:40:00,
2013-07-22 18:08:00,73.0,68.6,29.82,SSE,157,5.8,-999.0,86,-99.99,,,0.52,Acu-Link.com,2013-07-22 22:08:00,
2013-07-22 18:24:00,73.0,68.9,29.82,SSE,157,4.2,-999.0,87,-99.99,,,0.52,Acu-Link.com,2013-07-22 22:24:00,
2013-07-22 18:43:00,73.0,68.9,29.82,ESE,112,3.7,-999.0,87,-99.99,,,0.52,Acu-Link.com,2013-07-22 22:43:00,
2013-07-22 18:59:00,72.7,68.9,29.82,SSE,157,4.7,-999.0,88,-99.99,,,0.52,Acu-Link.com,2013-07-22 22:59:00,
2013-07-22 19:16:00,72.5,69.4,29.82,South,180,3.7,-999.0,90,-99.99,,,0.52,Acu-Link.com,2013-07-22 23:16:00,
2013-07-22 19:31:00,71.6,68.8,29.81,ESE,112,4.2,-999.0,91,-99.99,,,0.52,Acu-Link.com,2013-07-22 23:31:00,
2013-07-22 19:47:00,71.6,68.5,29.81,South,180,5.3,-999.0,90,-99.99,,,0.52,Acu-Link.com,2013-07-22 23:47:00,
2013-07-22 20:08:00,71.4,68.6,29.81,ESE,112,5.3,-999.0,91,-99.99,,,0.52,Acu-Link.com,2013-07-23 00:08:00,
2013-07-22 20:25:00,71.2,68.4,29.81,SSE,157,5.8,-999.0,91,-99.99,,,0.52,Acu-Link.com,2013-07-23 00:25:00,
2013-07-22 20:54:00,71.1,69.0,29.81,SSE,157,8.3,-999.0,93,-99.99,,,0.52,Acu-Link.com,2013-07-23 00:54:00,
2013-07-22 21:11:00,70.5,67.4,29.82,SSE,157,9.4,-999.0,90,-99.99,,,0.52,Acu-Link.com,2013-07-23 01:11:00,
2013-07-22 21:27:00,70.0,67.6,29.83,SSE,157,7.8,-999.0,92,-99.99,,,0.52,Acu-Link.com,2013-07-23 01:27:00,
2013-07-22 22:03:00,68.5,65.1,29.82,ESE,112,5.3,-999.0,89,-99.99,,,0.52,Acu-Link.com,2013-07-23 02:03:00,
2013-07-22 22:22:00,68.5,65.1,29.82,South,180,7.8,-999.0,89,-99.99,,,0.52,Acu-Link.com,2013-07-23 02:22:00,
2013-07-22 22:55:00,68.0,65.3,29.81,SE,135,6.3,-999.0,91,-99.99,,,0.52,Acu-Link.com,2013-07-23 02:55:00,